DUCK FRF 17m, NC - 433

GPS Positions

GPS Time
Latitude
Degrees
Longitude
Degrees
Gap
 
Distance
NM
Speed
Knots
Direction
Degrees
2014 Oct 28, 08:44 36.20076° -75.71429° 30 min 0.02 0.00
149°
2014 Oct 28, 08:14 36.20079° -75.71432° 30 min 0.02 0.00
141°
2014 Oct 28, 07:44 36.20081° -75.71434° 30 min 0.02 0.00
2014 Oct 28, 07:14 36.20079° -75.71434° 30 min 0.02 0.01
276°
2014 Oct 28, 06:44 36.20078° -75.71426° 30 min 0.02 0.01
171°
2014 Oct 28, 06:14 36.20090° -75.71428° 30 min 0.02 0.02
352°
2014 Oct 28, 05:44 36.20077° -75.71426° 30 min 0.02 0.00
2014 Oct 28, 05:14 36.20077° -75.71426° 30 min 0.02 0.00
224°
2014 Oct 28, 04:44 36.20079° -75.71423° 30 min 0.02 0.00
180°
2014 Oct 28, 04:14 36.20081° -75.71423° 30 min 0.02 0.01
50°
2014 Oct 28, 03:44 36.20077° -75.71429° 30 min 0.02 0.00
180°
2014 Oct 28, 03:14 36.20079° -75.71429° 30 min 0.02 0.00
63°
2014 Oct 28, 02:44 36.20077° -75.71434° 30 min 0.02 0.00
180°
2014 Oct 28, 02:14 36.20078° -75.71434° 30 min 0.02 0.00
90°
2014 Oct 28, 01:44 36.20078° -75.71436° 30 min 0.02 0.00
112°
2014 Oct 28, 01:14 36.20079° -75.71439° 30 min 0.02 0.00
316°
2014 Oct 28, 00:44 36.20077° -75.71436° 30 min 0.02 0.00
332°
2014 Oct 28, 00:14 36.20073° -75.71434° 30 min 0.02 0.00
2014 Oct 27, 23:44 36.20073° -75.71434° 30 min 0.02 0.00
44°
2014 Oct 27, 23:14 36.20071° -75.71436° 30 min 0.01 0.02
180°
2014 Oct 27, 22:44 36.20086° -75.71436° 30 min 0.02 0.02
352°
2014 Oct 27, 22:14 36.20073° -75.71434° 30 min 0.02 0.00
287°
2014 Oct 27, 21:44 36.20072° -75.71429° 30 min 0.01 0.00
68°
2014 Oct 27, 21:14 36.20071° -75.71432° 30 min 0.01 0.00
90°
2014 Oct 27, 20:44 36.20071° -75.71436° 30 min 0.01 0.00
2014 Oct 27, 20:14 36.20068° -75.71436° 30 min 0.01 0.00
270°
2014 Oct 27, 19:44 36.20068° -75.71432° 30 min 0.01 0.00
31°
2014 Oct 27, 19:14 36.20065° -75.71434° 30 min 0.01 0.01
16°
2014 Oct 27, 18:44 36.20058° -75.71436° 30 min 0.01 0.00
302°
2014 Oct 27, 18:14 36.20057° -75.71434° 30 min 0.01 0.00
180°
2014 Oct 27, 17:44 36.20058° -75.71434° 30 min 0.01 0.00
180°
2014 Oct 27, 17:14 36.20061° -75.71434° 30 min 0.01 0.00
90°
2014 Oct 27, 16:44 36.20061° -75.71436° 30 min 0.01 0.01
81°
2014 Oct 27, 16:14 36.20061° -75.71442° 30 min 0.01 0.01
199°
2014 Oct 27, 15:44 36.20066° -75.71440° 30 min 0.01 0.00
213°
2014 Oct 27, 15:14 36.20068° -75.71439° 30 min 0.01 0.02
119°
2014 Oct 27, 14:44 36.20074° -75.71453° 30 min 0.02 0.01
289°
2014 Oct 27, 14:14 36.20071° -75.71442° 30 min 0.02 0.01
318°
2014 Oct 27, 13:44 36.20068° -75.71439° 30 min 0.01 0.00
2014 Oct 27, 13:14 36.20067° -75.71439° 30 min 0.01 0.00
180°
2014 Oct 27, 12:44 36.20068° -75.71439° 30 min 0.01 0.00
33°
2014 Oct 27, 12:14 36.20066° -75.71440° 30 min 0.01 0.00
270°
2014 Oct 27, 11:44 36.20066° -75.71439° 30 min 0.01 0.00
2014 Oct 27, 11:14 36.20066° -75.71439° 30 min 0.01 0.00
211°
2014 Oct 27, 10:44 36.20069° -75.71436° 30 min 0.01 0.00
302°
2014 Oct 27, 10:14 36.20068° -75.71434° 30 min 0.01 0.00
2014 Oct 27, 09:44 36.20067° -75.71434° 30 min 0.01 0.00
282°
2014 Oct 27, 09:14 36.20066° -75.71429° 30 min 0.01 0.01
318°
2014 Oct 27, 08:44 36.20058° -75.71421° 30 min 0.01 0.01
119°
2014 Oct 27, 08:14 36.20061° -75.71428° 30 min 0.01 0.00
282°
2014 Oct 27, 07:44 36.20061° -75.71423° 30 min 0.01 0.01
264°
2014 Oct 27, 07:14 36.20061° -75.71415° 30 min 0.01 0.01
258°
2014 Oct 27, 06:44 36.20063° -75.71408° 30 min 0.01 0.01
90°
2014 Oct 27, 06:14 36.20063° -75.71417° 30 min 0.01 0.01
199°
2014 Oct 27, 05:44 36.20068° -75.71415° 30 min 0.01 0.01
125°
2014 Oct 27, 05:14 36.20071° -75.71421° 30 min 0.01 0.00
248°
2014 Oct 27, 04:44 36.20072° -75.71419° 30 min 0.01 0.00
152°
2014 Oct 27, 04:14 36.20076° -75.71421° 30 min 0.02 0.00
90°
2014 Oct 27, 03:44 36.20076° -75.71423° 30 min 0.02 0.00
2014 Oct 27, 03:14 36.20072° -75.71423° 30 min 0.01 0.00
152°
2014 Oct 27, 02:44 36.20076° -75.71426° 30 min 0.02 0.00
2014 Oct 27, 02:14 36.20073° -75.71426° 30 min 0.01 0.00
90°
2014 Oct 27, 01:44 36.20073° -75.71429° 30 min 0.01 0.03
162°
2014 Oct 27, 01:14 36.20100° -75.71440° 30 min 0.03 0.03
347°
2014 Oct 27, 00:44 36.20072° -75.71432° 30 min 0.01 0.00
2014 Oct 27, 00:14 36.20072° -75.71432° 30 min 0.01 0.01
50°
2014 Oct 26, 23:44 36.20069° -75.71436° 30 min 0.01 0.01
215°
2014 Oct 26, 23:14 36.20074° -75.71432° 30 min 0.02 0.01
270°
2014 Oct 26, 22:44 36.20074° -75.71426° 30 min 0.01 0.00
2014 Oct 26, 22:14 36.20073° -75.71426° 30 min 0.01 0.00
2014 Oct 26, 21:44 36.20072° -75.71426° 30 min 0.01 0.00
122°
2014 Oct 26, 21:14 36.20073° -75.71428° 30 min 0.01 0.00
33°
2014 Oct 26, 20:44 36.20071° -75.71429° 30 min 0.01 0.01
295°
2014 Oct 26, 20:14 36.20069° -75.71423° 30 min 0.01 0.00
180°
2014 Oct 26, 19:44 36.20070° -75.71423° 30 min 0.01 0.00
90°
2014 Oct 26, 19:14 36.20070° -75.71428° 30 min 0.01 0.00
270°
2014 Oct 26, 18:44 36.20070° -75.71423° 30 min 0.01 0.01
336°
2014 Oct 26, 18:14 36.20066° -75.71421° 30 min 0.01 0.00
2014 Oct 26, 17:44 36.20066° -75.71421° 30 min 0.01 0.00
90°
2014 Oct 26, 17:14 36.20066° -75.71423° 30 min 0.01 0.00
180°
2014 Oct 26, 16:44 36.20069° -75.71423° 30 min 0.01 0.00
90°
2014 Oct 26, 16:14 36.20069° -75.71426° 30 min 0.01 0.00
253°
2014 Oct 26, 15:44 36.20070° -75.71421° 30 min 0.01 0.00
117°
2014 Oct 26, 15:14 36.20072° -75.71426° 30 min 0.01 0.00
76°
2014 Oct 26, 14:44 36.20071° -75.71429° 30 min 0.01 0.01
261°
2014 Oct 26, 14:14 36.20072° -75.71423° 30 min 0.01 0.00
90°
2014 Oct 26, 13:44 36.20072° -75.71428° 30 min 0.01 0.00
152°
2014 Oct 26, 13:14 36.20074° -75.71429° 30 min 0.02 0.00
2014 Oct 26, 12:44 36.20073° -75.71429° 30 min 0.01 0.00
2014 Oct 26, 12:14 36.20073° -75.71429° 30 min 0.01 0.00
208°
2014 Oct 26, 11:44 36.20076° -75.71428° 30 min 0.02 0.00
47°
2014 Oct 26, 11:14 36.20074° -75.71429° 30 min 0.02 0.00
208°
2014 Oct 26, 10:44 36.20077° -75.71428° 30 min 0.02 0.00
133°
2014 Oct 26, 10:14 36.20078° -75.71429° 30 min 0.02 0.00
313°
2014 Oct 26, 09:44 36.20077° -75.71428° 30 min 0.02 0.00
243°
2014 Oct 26, 09:14 36.20079° -75.71423° 30 min 0.02 0.00
31°
2014 Oct 26, 08:44 36.20076° -75.71426° 30 min 0.02 0.00
180°
2014 Oct 26, 08:14 36.20078° -75.71426° 30 min 0.02 0.00
287°
2014 Oct 26, 07:44 36.20077° -75.71421° 30 min 0.02 0.00
270°
2014 Oct 26, 07:14 36.20077° -75.71419° 30 min 0.02 0.00
2014 Oct 26, 06:44 36.20077° -75.71419° 30 min 0.02 0.00
313°
2014 Oct 26, 06:14 36.20076° -75.71417° 30 min 0.02 0.00
238°
2014 Oct 26, 05:44 36.20077° -75.71415° 30 min 0.02 0.00
321°
2014 Oct 26, 05:14 36.20074° -75.71413° 30 min 0.02 0.00
122°
2014 Oct 26, 04:44 36.20076° -75.71415° 30 min 0.02 0.01
2014 Oct 26, 04:14 36.20071° -75.71415° 30 min 0.01 0.00
287°
2014 Oct 26, 03:44 36.20070° -75.71410° 30 min 0.01 0.00
2014 Oct 26, 03:14 36.20069° -75.71410° 30 min 0.01 0.01
80°
2014 Oct 26, 02:44 36.20068° -75.71419° 30 min 0.01 0.00
270°
2014 Oct 26, 02:14 36.20068° -75.71415° 30 min 0.01 0.01
109°
2014 Oct 26, 01:44 36.20070° -75.71423° 30 min 0.01 0.00
2014 Oct 26, 01:14 36.20068° -75.71423° 30 min 0.01 0.01
319°
2014 Oct 26, 00:44 36.20064° -75.71419° 30 min 0.01 0.01
41°
2014 Oct 26, 00:14 36.20060° -75.71423° 30 min 0.01 0.01
2014 Oct 25, 23:44 36.20054° -75.71423° 30 min 0.00 0.01
65°
2014 Oct 25, 23:14 36.20052° -75.71429° 30 min 0.00 0.01
19°
2014 Oct 25, 22:44 36.20047° -75.71432° 30 min 0.01 0.01
344°
2014 Oct 25, 22:14 36.20040° -75.71429° 30 min 0.01 0.00
90°
2014 Oct 25, 21:44 36.20040° -75.71434° 30 min 0.01 0.00
287°
2014 Oct 25, 21:14 36.20039° -75.71429° 30 min 0.01 0.01
347°
2014 Oct 25, 20:44 36.20034° -75.71428° 30 min 0.01 0.00
329°
2014 Oct 25, 20:14 36.20031° -75.71426° 30 min 0.01 0.00
321°
2014 Oct 25, 19:44 36.20028° -75.71423° 30 min 0.01 0.00
270°
2014 Oct 25, 19:14 36.20028° -75.71419° 30 min 0.01 0.00
338°
2014 Oct 25, 18:44 36.20025° -75.71417° 30 min 0.01 0.00
243°
2014 Oct 25, 18:14 36.20027° -75.71413° 30 min 0.01 0.00
292°
2014 Oct 25, 17:44 36.20026° -75.71410° 30 min 0.01 0.00
287°
2014 Oct 25, 17:14 36.20025° -75.71406° 30 min 0.02 0.00
2014 Oct 25, 16:44 36.20024° -75.71406° 30 min 0.02 0.00
180°
2014 Oct 25, 16:14 36.20027° -75.71406° 30 min 0.02 0.00
180°
2014 Oct 25, 15:44 36.20028° -75.71406° 30 min 0.01 0.01
78°
2014 Oct 25, 15:14 36.20027° -75.71413° 30 min 0.01 0.01
122°
2014 Oct 25, 14:44 36.20029° -75.71417° 30 min 0.01 0.00
238°
2014 Oct 25, 14:14 36.20031° -75.71415° 30 min 0.01 0.01
336°
2014 Oct 25, 13:44 36.20026° -75.71413° 30 min 0.01 0.00
117°
2014 Oct 25, 13:14 36.20028° -75.71417° 30 min 0.01 0.01
282°
2014 Oct 25, 12:44 36.20027° -75.71410° 30 min 0.01 0.01
82°
2014 Oct 25, 12:14 36.20026° -75.71417° 30 min 0.01 0.01
170°
2014 Oct 25, 11:44 36.20034° -75.71419° 30 min 0.01 0.01
324°
2014 Oct 25, 11:14 36.20029° -75.71415° 30 min 0.01 0.04
147°
2014 Oct 25, 10:44 36.20056° -75.71436° 30 min 0.01 0.01
310°
2014 Oct 25, 10:14 36.20053° -75.71432° 30 min 0.01 0.00
332°
2014 Oct 25, 09:44 36.20050° -75.71429° 30 min 0.00 0.00
2014 Oct 25, 09:14 36.20050° -75.71429° 30 min 0.00 0.02
330°
2014 Oct 25, 08:44 36.20035° -75.71419° 30 min 0.01 0.02
321°
2014 Oct 25, 08:14 36.20024° -75.71408° 30 min 0.02 0.00
149°
2014 Oct 25, 07:44 36.20027° -75.71410° 30 min 0.01 0.01
260°
2014 Oct 25, 07:14 36.20028° -75.71402° 30 min 0.02 0.00
31°
2014 Oct 25, 06:44 36.20025° -75.71404° 30 min 0.02 0.00
180°
2014 Oct 25, 06:14 36.20027° -75.71404° 30 min 0.02 0.00
133°
2014 Oct 25, 05:44 36.20028° -75.71406° 30 min 0.01 0.00
270°
2014 Oct 25, 05:14 36.20028° -75.71404° 30 min 0.02 0.00
2014 Oct 25, 04:44 36.20028° -75.71404° 30 min 0.02 0.00
2014 Oct 25, 04:14 36.20026° -75.71404° 30 min 0.02 0.01
167°
2014 Oct 25, 03:44 36.20032° -75.71406° 30 min 0.01 0.01
22°
2014 Oct 25, 03:14 36.20027° -75.71408° 30 min 0.01 0.00
122°
2014 Oct 25, 02:44 36.20028° -75.71410° 30 min 0.01 0.00
73°
2014 Oct 25, 02:14 36.20027° -75.71415° 30 min 0.01 0.00
282°
2014 Oct 25, 01:44 36.20026° -75.71410° 30 min 0.01 0.00
2014 Oct 25, 01:14 36.20025° -75.71410° 30 min 0.02 0.00
2014 Oct 25, 00:44 36.20025° -75.71410° 30 min 0.02 0.00
90°
2014 Oct 25, 00:14 36.20025° -75.71413° 30 min 0.02 0.00
2014 Oct 24, 23:44 36.20024° -75.71413° 30 min 0.02 0.01
180°
2014 Oct 24, 23:14 36.20035° -75.71413° 30 min 0.01 0.01
2014 Oct 24, 22:44 36.20025° -75.71413° 30 min 0.02 0.01
71°
2014 Oct 24, 22:14 36.20023° -75.71421° 30 min 0.02 0.00
2014 Oct 24, 21:44 36.20023° -75.71421° 30 min 0.02 0.00
180°
2014 Oct 24, 21:14 36.20026° -75.71421° 30 min 0.01 0.00
307°
2014 Oct 24, 20:44 36.20024° -75.71417° 30 min 0.02 0.01
2014 Oct 24, 20:14 36.20020° -75.71417° 30 min 0.02 0.01
164°
2014 Oct 24, 19:44 36.20024° -75.71419° 30 min 0.02 0.00
332°
2014 Oct 24, 19:14 36.20022° -75.71417° 30 min 0.02 0.00
270°
2014 Oct 24, 18:44 36.20022° -75.71415° 30 min 0.02 0.00
2014 Oct 24, 18:14 36.20021° -75.71415° 30 min 0.02 0.01
221°
2014 Oct 24, 17:44 36.20025° -75.71410° 30 min 0.02 0.00
302°
2014 Oct 24, 17:14 36.20024° -75.71408° 30 min 0.02 0.00
238°
2014 Oct 24, 16:44 36.20025° -75.71406° 30 min 0.02 0.00
2014 Oct 24, 16:14 36.20022° -75.71406° 30 min 0.02 0.00
180°
2014 Oct 24, 15:44 36.20024° -75.71406° 30 min 0.02 0.00
90°
2014 Oct 24, 15:14 36.20024° -75.71410° 30 min 0.02 0.01
204°
2014 Oct 24, 14:44 36.20028° -75.71408° 30 min 0.01 0.00
58°
2014 Oct 24, 14:14 36.20027° -75.71410° 30 min 0.01 0.00
2014 Oct 24, 13:44 36.20025° -75.71410° 30 min 0.02 0.00
58°
2014 Oct 24, 13:14 36.20024° -75.71413° 30 min 0.02 0.00
122°
2014 Oct 24, 12:44 36.20025° -75.71415° 30 min 0.02 0.00
224°
2014 Oct 24, 12:14 36.20027° -75.71413° 30 min 0.01 0.00
44°
2014 Oct 24, 11:44 36.20025° -75.71415° 30 min 0.02 0.00
270°
2014 Oct 24, 11:14 36.20025° -75.71413° 30 min 0.02 0.00
270°
2014 Oct 24, 10:44 36.20025° -75.71410° 30 min 0.02 0.00
2014 Oct 24, 10:14 36.20025° -75.71410° 30 min 0.02 0.01
90°
2014 Oct 24, 09:44 36.20025° -75.71417° 30 min 0.01 0.01
282°
2014 Oct 24, 09:14 36.20024° -75.71410° 30 min 0.02 0.01
114°
2014 Oct 24, 08:44 36.20027° -75.71419° 30 min 0.01 0.01
340°
2014 Oct 24, 08:14 36.20019° -75.71415° 30 min 0.02 0.01
161°
2014 Oct 24, 07:44 36.20024° -75.71417° 30 min 0.02 0.01
270°
2014 Oct 24, 07:14 36.20024° -75.71410° 30 min 0.02 0.00
2014 Oct 24, 06:44 36.20023° -75.71410° 30 min 0.02 0.00
180°
2014 Oct 24, 06:14 36.20025° -75.71410° 30 min 0.02 0.00
253°
2014 Oct 24, 05:44 36.20026° -75.71406° 30 min 0.02 0.01
323°
2014 Oct 24, 05:14 36.20020° -75.71400° 30 min 0.02 0.01
156°
2014 Oct 24, 04:44 36.20028° -75.71404° 30 min 0.02 0.00
2014 Oct 24, 04:14 36.20025° -75.71404° 30 min 0.02 0.00
147°
2014 Oct 24, 03:44 36.20027° -75.71406° 30 min 0.02 0.00
44°
2014 Oct 24, 03:14 36.20025° -75.71408° 30 min 0.02 0.00
180°
2014 Oct 24, 02:44 36.20026° -75.71408° 30 min 0.02 0.00
224°
2014 Oct 24, 02:14 36.20028° -75.71406° 30 min 0.01 0.00
44°
2014 Oct 24, 01:44 36.20026° -75.71408° 30 min 0.02 0.00
332°
2014 Oct 24, 01:14 36.20023° -75.71406° 30 min 0.02 0.00
180°
2014 Oct 24, 00:44 36.20024° -75.71406° 30 min 0.02 0.00
122°
2014 Oct 24, 00:14 36.20025° -75.71408° 30 min 0.02 0.00
2014 Oct 23, 23:44 36.20023° -75.71408° 30 min 0.02 0.00
180°
2014 Oct 23, 23:14 36.20024° -75.71408° 30 min 0.02 0.00
270°
2014 Oct 23, 22:44 36.20024° -75.71404° 30 min 0.02 0.00
22°
2014 Oct 23, 22:14 36.20021° -75.71406° 30 min 0.02 0.01
130°
2014 Oct 23, 21:44 36.20024° -75.71410° 30 min 0.02 0.03
309°
2014 Oct 23, 21:14 36.20010° -75.71389° 30 min 0.03 0.02
123°
2014 Oct 23, 20:44 36.20021° -75.71410° 30 min 0.02 0.01
156°
2014 Oct 23, 20:14 36.20025° -75.71413° 30 min 0.02 0.00
90°
2014 Oct 23, 19:44 36.20025° -75.71417° 30 min 0.01 0.01
279°
2014 Oct 23, 19:14 36.20024° -75.71408° 30 min 0.02 0.00
270°
2014 Oct 23, 18:44 36.20024° -75.71406° 30 min 0.02 0.00
141°
2014 Oct 23, 18:14 36.20026° -75.71408° 30 min 0.02 0.00
321°
2014 Oct 23, 17:44 36.20024° -75.71406° 30 min 0.02 0.00
90°
2014 Oct 23, 17:14 36.20024° -75.71408° 30 min 0.02 0.00
238°
2014 Oct 23, 16:44 36.20025° -75.71406° 30 min 0.02 0.03
305°
2014 Oct 23, 16:14 36.20010° -75.71378° 30 min 0.03 0.03
124°
2014 Oct 23, 15:44 36.20024° -75.71404° 30 min 0.02 0.00
2014 Oct 23, 15:14 36.20024° -75.71404° 30 min 0.02 0.01
135°
2014 Oct 23, 14:44 36.20027° -75.71408° 30 min 0.01 0.00
2014 Oct 23, 14:14 36.20025° -75.71408° 30 min 0.02 0.00
90°
2014 Oct 23, 13:44 36.20025° -75.71413° 30 min 0.02 0.01
282°
2014 Oct 23, 13:14 36.20024° -75.71406° 30 min 0.02 0.00
180°
2014 Oct 23, 12:44 36.20025° -75.71406° 30 min 0.02 0.00
180°
2014 Oct 23, 12:14 36.20026° -75.71406° 30 min 0.02 0.00
58°
2014 Oct 23, 11:44 36.20025° -75.71408° 30 min 0.02 0.00
2014 Oct 23, 11:14 36.20025° -75.71408° 30 min 0.02 0.00
302°
2014 Oct 23, 10:44 36.20024° -75.71406° 30 min 0.02 0.00
90°
2014 Oct 23, 10:14 36.20024° -75.71410° 30 min 0.02 0.00
270°
2014 Oct 23, 09:44 36.20024° -75.71406° 30 min 0.02 0.00
2014 Oct 23, 09:14 36.20023° -75.71406° 30 min 0.02 0.01
161°
2014 Oct 23, 08:44 36.20028° -75.71408° 30 min 0.01 0.00
302°
2014 Oct 23, 08:14 36.20027° -75.71406° 30 min 0.02 0.00
2014 Oct 23, 07:44 36.20025° -75.71406° 30 min 0.02 0.00
2014 Oct 23, 07:14 36.20024° -75.71406° 30 min 0.02 0.00
2014 Oct 23, 06:44 36.20023° -75.71406° 30 min 0.02 0.00
180°
2014 Oct 23, 06:14 36.20024° -75.71406° 30 min 0.02 0.00
122°
2014 Oct 23, 05:44 36.20025° -75.71408° 30 min 0.02 0.00
122°
2014 Oct 23, 05:14 36.20026° -75.71410° 30 min 0.01 0.01
348°
2014 Oct 23, 04:44 36.20018° -75.71408° 30 min 0.02 0.00
208°
2014 Oct 23, 04:14 36.20021° -75.71406° 30 min 0.02 0.01
166°
2014 Oct 23, 03:44 36.20028° -75.71408° 30 min 0.01 0.01
315°
2014 Oct 23, 03:14 36.20025° -75.71404° 30 min 0.02 0.00
90°
2014 Oct 23, 02:44 36.20025° -75.71406° 30 min 0.02 0.00
2014 Oct 23, 02:14 36.20025° -75.71406° 30 min 0.02 0.00
2014 Oct 23, 01:44 36.20025° -75.71406° 30 min 0.02 0.00
2014 Oct 23, 01:14 36.20024° -75.71406° 30 min 0.02 0.00
2014 Oct 23, 00:44 36.20022° -75.71406° 30 min 0.02 0.00
208°
2014 Oct 23, 00:14 36.20024° -75.71404° 30 min 0.02 0.00
2014 Oct 22, 23:44 36.20023° -75.71404° 30 min 0.02 0.00
160°
2014 Oct 22, 23:14 36.20026° -75.71406° 30 min 0.02 0.01
210°
2014 Oct 22, 22:44 36.20032° -75.71402° 30 min 0.01 0.01
25°
2014 Oct 22, 22:14 36.20025° -75.71406° 30 min 0.02 0.00
122°
2014 Oct 22, 21:44 36.20026° -75.71408° 30 min 0.02 0.00
290°
2014 Oct 22, 21:14 36.20025° -75.71404° 30 min 0.02 0.00
2014 Oct 22, 20:44 36.20025° -75.71404° 30 min 0.02 0.00
20°
2014 Oct 22, 20:14 36.20022° -75.71406° 30 min 0.02 0.01
131°
2014 Oct 22, 19:44 36.20028° -75.71415° 30 min 0.01 0.01
307°
2014 Oct 22, 19:14 36.20024° -75.71408° 30 min 0.02 0.00
2014 Oct 22, 18:44 36.20022° -75.71408° 30 min 0.02 0.00
152°
2014 Oct 22, 18:14 36.20025° -75.71410° 30 min 0.02 0.01
19°
2014 Oct 22, 17:44 36.20020° -75.71413° 30 min 0.02 0.01
215°
2014 Oct 22, 17:14 36.20025° -75.71408° 30 min 0.02 0.00
238°
2014 Oct 22, 16:44 36.20026° -75.71406° 30 min 0.02 0.00
90°
2014 Oct 22, 16:14 36.20026° -75.71408° 30 min 0.02 0.00
307°
2014 Oct 22, 15:44 36.20024° -75.71404° 30 min 0.02 0.00
180°
2014 Oct 22, 15:14 36.20025° -75.71404° 30 min 0.02 0.00
158°
2014 Oct 22, 14:44 36.20028° -75.71406° 30 min 0.01 0.01
2014 Oct 22, 14:14 36.20024° -75.71406° 30 min 0.02 0.00
180°
2014 Oct 22, 13:44 36.20026° -75.71406° 30 min 0.02 0.00
58°
2014 Oct 22, 13:14 36.20025° -75.71408° 30 min 0.02 0.01
270°
2014 Oct 22, 12:44 36.20025° -75.71402° 30 min 0.02 0.00
70°
2014 Oct 22, 12:14 36.20024° -75.71406° 30 min 0.02 0.00
180°
2014 Oct 22, 11:44 36.20027° -75.71406° 30 min 0.02 0.00
122°
2014 Oct 22, 11:14 36.20028° -75.71408° 30 min 0.01 0.00
302°
2014 Oct 22, 10:44 36.20026° -75.71404° 30 min 0.02 0.00
2014 Oct 22, 10:14 36.20025° -75.71404° 30 min 0.02 0.00
180°
2014 Oct 22, 09:44 36.20027° -75.71404° 30 min 0.02 0.01
81°
2014 Oct 22, 09:14 36.20026° -75.71410° 30 min 0.01 0.01
98°
2014 Oct 22, 08:44 36.20027° -75.71417° 30 min 0.01 0.00
2014 Oct 22, 08:14 36.20026° -75.71417° 30 min 0.01 0.00
2014 Oct 22, 07:44 36.20026° -75.71417° 30 min 0.01 0.00
20°
2014 Oct 22, 07:14 36.20023° -75.71419° 30 min 0.02 0.00
233°
2014 Oct 22, 06:44 36.20025° -75.71415° 30 min 0.02 0.01
234°
2014 Oct 22, 06:14 36.20031° -75.71406° 30 min 0.01 0.00
340°
2014 Oct 22, 05:44 36.20027° -75.71404° 30 min 0.02 0.01
180°
2014 Oct 22, 05:14 36.20034° -75.71404° 30 min 0.01 0.01
238°
2014 Oct 22, 04:44 36.20037° -75.71397° 30 min 0.01 0.01
156°
2014 Oct 22, 04:14 36.20041° -75.71400° 30 min 0.01 0.03
146°
2014 Oct 22, 03:44 36.20064° -75.71419° 30 min 0.01 0.00
180°
2014 Oct 22, 03:14 36.20065° -75.71419° 30 min 0.01 0.00
180°
2014 Oct 22, 02:44 36.20066° -75.71419° 30 min 0.01 0.00
2014 Oct 22, 02:14 36.20064° -75.71419° 30 min 0.01 0.00
208°
2014 Oct 22, 01:44 36.20066° -75.71417° 30 min 0.01 0.01
122°
2014 Oct 22, 01:14 36.20069° -75.71423° 30 min 0.01 0.00
107°
2014 Oct 22, 00:44 36.20070° -75.71428° 30 min 0.01 0.00
90°
2014 Oct 22, 00:14 36.20070° -75.71432° 30 min 0.01 0.00
2014 Oct 21, 23:44 36.20069° -75.71432° 30 min 0.01 0.00
2014 Oct 21, 23:14 36.20068° -75.71432° 30 min 0.01 0.01
154°
2014 Oct 21, 22:44 36.20076° -75.71436° 30 min 0.02 0.01
307°
2014 Oct 21, 22:14 36.20069° -75.71426° 30 min 0.01 0.00
180°
2014 Oct 21, 21:44 36.20071° -75.71426° 30 min 0.01 0.00
2014 Oct 21, 21:14 36.20068° -75.71426° 30 min 0.01 0.01
130°
2014 Oct 21, 20:44 36.20072° -75.71432° 30 min 0.01 0.00
2014 Oct 21, 20:14 36.20071° -75.71432° 30 min 0.01 0.01
261°
2014 Oct 21, 19:44 36.20072° -75.71426° 30 min 0.01 0.00
270°
2014 Oct 21, 19:14 36.20072° -75.71423° 30 min 0.01 0.00
180°
2014 Oct 21, 18:44 36.20073° -75.71423° 30 min 0.01 0.00
270°
2014 Oct 21, 18:14 36.20073° -75.71421° 30 min 0.01 0.00
2014 Oct 21, 17:44 36.20072° -75.71421° 30 min 0.01 0.00
2014 Oct 21, 17:14 36.20071° -75.71421° 30 min 0.01 0.01
238°
2014 Oct 21, 16:44 36.20074° -75.71415° 30 min 0.01 0.01
46°
2014 Oct 21, 16:14 36.20066° -75.71426° 30 min 0.01 0.01
270°
2014 Oct 21, 15:44 36.20066° -75.71419° 30 min 0.01 0.01
117°
2014 Oct 21, 15:14 36.20071° -75.71432° 30 min 0.01 0.03
282°
2014 Oct 21, 14:44 36.20067° -75.71406° 30 min 0.01 0.01
333°
2014 Oct 21, 14:14 36.20061° -75.71402° 30 min 0.01 0.01
130°
2014 Oct 21, 13:44 36.20065° -75.71408° 30 min 0.01 0.01
102°
2014 Oct 21, 13:14 36.20066° -75.71415° 30 min 0.01 0.00
53°
2014 Oct 21, 12:44 36.20064° -75.71419° 30 min 0.01 0.01
189°
2014 Oct 21, 12:14 36.20071° -75.71417° 30 min 0.01 0.00
53°
2014 Oct 21, 11:44 36.20069° -75.71421° 30 min 0.01 0.01
90°
2014 Oct 21, 11:14 36.20069° -75.71428° 30 min 0.01 0.00
270°
2014 Oct 21, 10:44 36.20069° -75.71426° 30 min 0.01 0.00
122°
2014 Oct 21, 10:14 36.20070° -75.71428° 30 min 0.01 0.01
215°
2014 Oct 21, 09:44 36.20076° -75.71423° 30 min 0.02 0.01
58°
2014 Oct 21, 09:14 36.20071° -75.71432° 30 min 0.01 0.00
136°
2014 Oct 21, 08:44 36.20073° -75.71434° 30 min 0.02 0.00
329°
2014 Oct 21, 08:14 36.20070° -75.71432° 30 min 0.01 0.01
2014 Oct 21, 07:44 36.20066° -75.71432° 30 min 0.01 0.00
180°
2014 Oct 21, 07:14 36.20067° -75.71432° 30 min 0.01 0.00
238°
2014 Oct 21, 06:44 36.20068° -75.71429° 30 min 0.01 0.00
233°
2014 Oct 21, 06:14 36.20070° -75.71426° 30 min 0.01 0.00
302°
2014 Oct 21, 05:44 36.20069° -75.71423° 30 min 0.01 0.01
122°
2014 Oct 21, 05:14 36.20072° -75.71429° 30 min 0.01 0.00
284°
2014 Oct 21, 04:44 36.20071° -75.71426° 30 min 0.01 0.00
332°
2014 Oct 21, 04:14 36.20068° -75.71423° 30 min 0.01 0.02
285°
2014 Oct 21, 03:44 36.20064° -75.71404° 30 min 0.01 0.01
90°
2014 Oct 21, 03:14 36.20064° -75.71413° 30 min 0.01 0.01
327°
2014 Oct 21, 02:44 36.20055° -75.71406° 30 min 0.01 0.01
338°
2014 Oct 21, 02:14 36.20048° -75.71402° 30 min 0.01 0.00
2014 Oct 21, 01:44 36.20045° -75.71402° 30 min 0.01 0.01
238°
2014 Oct 21, 01:14 36.20048° -75.71397° 30 min 0.01 0.00
180°
2014 Oct 21, 00:44 36.20051° -75.71397° 30 min 0.01 0.01
205°
2014 Oct 21, 00:14 36.20057° -75.71394° 30 min 0.01 0.00
2014 Oct 20, 23:44 36.20057° -75.71394° 30 min 0.01 0.01
122°
2014 Oct 20, 23:14 36.20061° -75.71402° 30 min 0.01 0.00
2014 Oct 20, 22:44 36.20061° -75.71402° 30 min 0.01 0.01
338°
2014 Oct 20, 22:14 36.20056° -75.71400° 30 min 0.01 0.00
316°
2014 Oct 20, 21:44 36.20054° -75.71397° 30 min 0.01 0.01
344°
2014 Oct 20, 21:14 36.20044° -75.71394° 30 min 0.01 0.01
22°
2014 Oct 20, 20:44 36.20036° -75.71397° 30 min 0.01 0.00
39°
2014 Oct 20, 20:14 36.20034° -75.71400° 30 min 0.01 0.01
50°
2014 Oct 20, 19:44 36.20031° -75.71404° 30 min 0.01 0.00
2014 Oct 20, 19:14 36.20028° -75.71404° 30 min 0.02 0.00
180°
2014 Oct 20, 18:44 36.20029° -75.71404° 30 min 0.01 0.01
45°
2014 Oct 20, 18:14 36.20026° -75.71408° 30 min 0.02 0.01
225°
2014 Oct 20, 17:44 36.20029° -75.71404° 30 min 0.01 0.01
45°
2014 Oct 20, 17:14 36.20026° -75.71408° 30 min 0.02 0.01
78°
2014 Oct 20, 16:44 36.20025° -75.71415° 30 min 0.02 0.01
320°
2014 Oct 20, 16:14 36.20016° -75.71406° 30 min 0.02 0.01
166°
2014 Oct 20, 15:44 36.20024° -75.71408° 30 min 0.02 0.00
180°
2014 Oct 20, 15:14 36.20026° -75.71408° 30 min 0.02 0.00
224°
2014 Oct 20, 14:44 36.20028° -75.71406° 30 min 0.01 0.00
122°
2014 Oct 20, 14:14 36.20029° -75.71408° 30 min 0.01 0.01
324°
2014 Oct 20, 13:44 36.20025° -75.71404° 30 min 0.02 0.00
180°
2014 Oct 20, 13:14 36.20027° -75.71404° 30 min 0.02 0.01
180°
2014 Oct 20, 12:44 36.20033° -75.71404° 30 min 0.01 0.00
2014 Oct 20, 12:14 36.20031° -75.71404° 30 min 0.01 0.00
180°
2014 Oct 20, 11:44 36.20033° -75.71404° 30 min 0.01 0.00
2014 Oct 20, 11:14 36.20033° -75.71404° 30 min 0.01 0.00
2014 Oct 20, 10:44 36.20032° -75.71404° 30 min 0.01 0.00
180°
2014 Oct 20, 10:14 36.20034° -75.71404° 30 min 0.01 0.01
221°
2014 Oct 20, 09:44 36.20038° -75.71400° 30 min 0.01 0.00
90°
2014 Oct 20, 09:14 36.20038° -75.71402° 30 min 0.01 0.01
2014 Oct 20, 08:44 36.20033° -75.71402° 30 min 0.01 0.00
76°
2014 Oct 20, 08:14 36.20032° -75.71406° 30 min 0.01 0.00
28°
2014 Oct 20, 07:44 36.20028° -75.71408° 30 min 0.01 0.00
2014 Oct 20, 07:14 36.20027° -75.71408° 30 min 0.01 0.00
238°
2014 Oct 20, 06:44 36.20028° -75.71406° 30 min 0.01 0.01
90°
2014 Oct 20, 06:14 36.20028° -75.71413° 30 min 0.01 0.00
44°
2014 Oct 20, 05:44 36.20026° -75.71415° 30 min 0.01 0.00
270°
2014 Oct 20, 05:14 36.20026° -75.71413° 30 min 0.01 0.00
302°
2014 Oct 20, 04:44 36.20025° -75.71410° 30 min 0.02 0.00
90°
2014 Oct 20, 04:14 36.20025° -75.71413° 30 min 0.02 0.00
224°
2014 Oct 20, 03:44 36.20027° -75.71410° 30 min 0.01 0.00
292°
2014 Oct 20, 03:14 36.20026° -75.71408° 30 min 0.02 0.01
68°
2014 Oct 20, 02:44 36.20024° -75.71415° 30 min 0.02 0.01
230°
2014 Oct 20, 02:14 36.20027° -75.71410° 30 min 0.01 0.01
319°
2014 Oct 20, 01:44 36.20023° -75.71406° 30 min 0.02 0.00
227°
2014 Oct 20, 01:14 36.20024° -75.71404° 30 min 0.02 0.00
110°
2014 Oct 20, 00:44 36.20025° -75.71408° 30 min 0.02 0.00
250°
2014 Oct 20, 00:14 36.20026° -75.71404° 30 min 0.02 0.00
53°
2014 Oct 19, 23:44 36.20024° -75.71408° 30 min 0.02 0.00
238°
2014 Oct 19, 23:14 36.20025° -75.71406° 30 min 0.02 0.00
2014 Oct 19, 22:44 36.20024° -75.71406° 30 min 0.02 0.02
165°
2014 Oct 19, 22:14 36.20038° -75.71410° 30 min 0.01 0.01
351°
2014 Oct 19, 21:44 36.20026° -75.71408° 30 min 0.02 0.00
2014 Oct 19, 21:14 36.20026° -75.71408° 30 min 0.02 0.00
58°
2014 Oct 19, 20:44 36.20025° -75.71410° 30 min 0.02 0.01
58°
2014 Oct 19, 20:14 36.20023° -75.71415° 30 min 0.02 0.00
2014 Oct 19, 19:44 36.20021° -75.71415° 30 min 0.02 0.01
153°
2014 Oct 19, 19:14 36.20027° -75.71419° 30 min 0.01 0.01
274°
2014 Oct 19, 18:44 36.20026° -75.71406° 30 min 0.02 0.00
90°
2014 Oct 19, 18:14 36.20026° -75.71410° 30 min 0.01 0.01
161°
2014 Oct 19, 17:44 36.20032° -75.71413° 30 min 0.01 0.01
219°
2014 Oct 19, 17:14 36.20040° -75.71404° 30 min 0.01 0.02
24°
2014 Oct 19, 16:44 36.20025° -75.71413° 30 min 0.02 0.00
270°
2014 Oct 19, 16:14 36.20025° -75.71410° 30 min 0.02 0.00
2014 Oct 19, 15:44 36.20025° -75.71410° 30 min 0.02 0.00
2014 Oct 19, 15:14 36.20024° -75.71410° 30 min 0.02 0.01
156°
2014 Oct 19, 14:44 36.20028° -75.71413° 30 min 0.01 0.00
2014 Oct 19, 14:14 36.20025° -75.71413° 30 min 0.02 0.00
270°
2014 Oct 19, 13:44 36.20025° -75.71408° 30 min 0.02 0.00
2014 Oct 19, 13:14 36.20023° -75.71408° 30 min 0.02 0.00
180°
2014 Oct 19, 12:44 36.20025° -75.71408° 30 min 0.02 0.00
2014 Oct 19, 12:14 36.20025° -75.71408° 30 min 0.02 0.00
2014 Oct 19, 11:44 36.20025° -75.71408° 30 min 0.02 0.00
2014 Oct 19, 11:14 36.20022° -75.71408° 30 min 0.02 0.00
208°
2014 Oct 19, 10:44 36.20025° -75.71406° 30 min 0.02 0.00
90°
2014 Oct 19, 10:14 36.20025° -75.71408° 30 min 0.02 0.01
164°
2014 Oct 19, 09:44 36.20032° -75.71410° 30 min 0.01 0.01
341°
2014 Oct 19, 09:14 36.20026° -75.71408° 30 min 0.02 0.01
98°
2014 Oct 19, 08:44 36.20027° -75.71415° 30 min 0.01 0.01
278°
2014 Oct 19, 08:14 36.20026° -75.71408° 30 min 0.02 0.00
90°
2014 Oct 19, 07:44 36.20026° -75.71410° 30 min 0.01 0.00
73°
2014 Oct 19, 07:14 36.20025° -75.71415° 30 min 0.02 0.00
270°
2014 Oct 19, 06:44 36.20025° -75.71413° 30 min 0.02 0.00
90°
2014 Oct 19, 06:14 36.20025° -75.71415° 30 min 0.02 0.00
180°
2014 Oct 19, 05:44 36.20026° -75.71415° 30 min 0.01 0.00
302°
2014 Oct 19, 05:14 36.20025° -75.71413° 30 min 0.02 0.00
2014 Oct 19, 04:44 36.20025° -75.71413° 30 min 0.02 0.00
243°
2014 Oct 19, 04:14 36.20027° -75.71408° 30 min 0.01 0.02
78°
2014 Oct 19, 03:44 36.20024° -75.71426° 30 min 0.02 0.02
245°
2014 Oct 19, 03:14 36.20032° -75.71406° 30 min 0.01 0.01
180°
2014 Oct 19, 02:44 36.20040° -75.71406° 30 min 0.01 0.01
189°
2014 Oct 19, 02:14 36.20048° -75.71404° 30 min 0.01 0.01
169°
2014 Oct 19, 01:44 36.20054° -75.71406° 30 min 0.01 0.01
180°
2014 Oct 19, 01:14 36.20061° -75.71406° 30 min 0.01 0.00
136°
2014 Oct 19, 00:44 36.20063° -75.71408° 30 min 0.01 0.01
107°
2014 Oct 19, 00:14 36.20065° -75.71417° 30 min 0.01 0.01
144°
2014 Oct 18, 23:44 36.20069° -75.71421° 30 min 0.01 0.00
180°
2014 Oct 18, 23:14 36.20072° -75.71421° 30 min 0.01 0.00
90°
2014 Oct 18, 22:44 36.20072° -75.71423° 30 min 0.01 0.00
90°
2014 Oct 18, 22:14 36.20072° -75.71426° 30 min 0.01 0.00
180°
2014 Oct 18, 21:44 36.20076° -75.71426° 30 min 0.02 0.00
180°
2014 Oct 18, 21:14 36.20077° -75.71426° 30 min 0.02 0.00
2014 Oct 18, 20:44 36.20076° -75.71426° 30 min 0.02 0.00
149°
2014 Oct 18, 20:14 36.20079° -75.71428° 30 min 0.02 0.00
238°
2014 Oct 18, 19:44 36.20080° -75.71426° 30 min 0.02 0.00
2014 Oct 18, 19:14 36.20077° -75.71426° 30 min 0.02 0.00
2014 Oct 18, 18:44 36.20074° -75.71426° 30 min 0.01 0.00
180°
2014 Oct 18, 18:14 36.20078° -75.71426° 30 min 0.02 0.01
251°
2014 Oct 18, 17:44 36.20080° -75.71419° 30 min 0.02 0.01
58°
2014 Oct 18, 17:14 36.20074° -75.71429° 30 min 0.02 0.00
208°
2014 Oct 18, 16:44 36.20077° -75.71428° 30 min 0.02 0.00
238°
2014 Oct 18, 16:14 36.20078° -75.71426° 30 min 0.02 0.00
39°
2014 Oct 18, 15:44 36.20076° -75.71428° 30 min 0.02 0.01
115°
2014 Oct 18, 15:14 36.20078° -75.71434° 30 min 0.02 0.00
270°
2014 Oct 18, 14:44 36.20078° -75.71429° 30 min 0.02 0.00
270°
2014 Oct 18, 14:14 36.20078° -75.71428° 30 min 0.02 0.00
104°
2014 Oct 18, 13:44 36.20079° -75.71432° 30 min 0.02 0.01
324°
2014 Oct 18, 13:14 36.20074° -75.71428° 30 min 0.02 0.00
133°
2014 Oct 18, 12:44 36.20076° -75.71429° 30 min 0.02 0.00
250°
2014 Oct 18, 12:14 36.20077° -75.71426° 30 min 0.02 0.00
238°
2014 Oct 18, 11:44 36.20078° -75.71423° 30 min 0.02 0.00
248°
2014 Oct 18, 11:14 36.20079° -75.71421° 30 min 0.02 0.00
2014 Oct 18, 10:44 36.20076° -75.71421° 30 min 0.02 0.00
180°
2014 Oct 18, 10:14 36.20078° -75.71421° 30 min 0.02 0.01
2014 Oct 18, 09:44 36.20072° -75.71421° 30 min 0.01 0.00
180°
2014 Oct 18, 09:14 36.20073° -75.71421° 30 min 0.01 0.01
141°
2014 Oct 18, 08:44 36.20078° -75.71426° 30 min 0.02 0.00
248°
2014 Oct 18, 08:14 36.20079° -75.71423° 30 min 0.02 0.00
292°
2014 Oct 18, 07:44 36.20078° -75.71421° 30 min 0.02 0.01
180°
2014 Oct 18, 07:14 36.20083° -75.71421° 30 min 0.02 0.01
2014 Oct 18, 06:44 36.20078° -75.71421° 30 min 0.02 0.00
102°
2014 Oct 18, 06:14 36.20079° -75.71426° 30 min 0.02 0.00
292°
2014 Oct 18, 05:44 36.20078° -75.71423° 30 min 0.02 0.00
2014 Oct 18, 05:14 36.20078° -75.71423° 30 min 0.02 0.00
180°
2014 Oct 18, 04:44 36.20081° -75.71423° 30 min 0.02 0.01
35°
2014 Oct 18, 04:14 36.20076° -75.71428° 30 min 0.02 0.00
28°
2014 Oct 18, 03:44 36.20073° -75.71429° 30 min 0.01 0.00
233°
2014 Oct 18, 03:14 36.20076° -75.71426° 30 min 0.02 0.00
219°
2014 Oct 18, 02:44 36.20078° -75.71423° 30 min 0.02 0.01
210°
2014 Oct 18, 02:14 36.20086° -75.71417° 30 min 0.02 0.01
30°
2014 Oct 18, 01:44 36.20078° -75.71423° 30 min 0.02 0.01
249°
2014 Oct 18, 01:14 36.20080° -75.71417° 30 min 0.02 0.01
2014 Oct 18, 00:44 36.20073° -75.71417° 30 min 0.01 0.00
152°
2014 Oct 18, 00:14 36.20076° -75.71419° 30 min 0.02 0.00
28°
2014 Oct 17, 23:44 36.20072° -75.71421° 30 min 0.01 0.00
250°
2014 Oct 17, 23:14 36.20073° -75.71417° 30 min 0.01 0.00
133°
2014 Oct 17, 22:44 36.20074° -75.71419° 30 min 0.01 0.01
245°
2014 Oct 17, 22:14 36.20077° -75.71413° 30 min 0.02 0.01
109°
2014 Oct 17, 21:44 36.20080° -75.71423° 30 min 0.02 0.01
336°
2014 Oct 17, 21:14 36.20076° -75.71421° 30 min 0.02 0.01
16°
2014 Oct 17, 20:44 36.20069° -75.71423° 30 min 0.01 0.01
180°
2014 Oct 17, 20:14 36.20076° -75.71423° 30 min 0.02 0.02
321°
2014 Oct 17, 19:44 36.20065° -75.71413° 30 min 0.01 0.01
161°
2014 Oct 17, 19:14 36.20070° -75.71415° 30 min 0.01 0.00
110°
2014 Oct 17, 18:44 36.20071° -75.71419° 30 min 0.01 0.01
109°
2014 Oct 17, 18:14 36.20073° -75.71426° 30 min 0.01 0.00
180°
2014 Oct 17, 17:44 36.20076° -75.71426° 30 min 0.02 0.00
2014 Oct 17, 17:14 36.20074° -75.71426° 30 min 0.01 0.00
208°
2014 Oct 17, 16:44 36.20078° -75.71423° 30 min 0.02 0.01
16°
2014 Oct 17, 16:14 36.20071° -75.71426° 30 min 0.01 0.00
321°
2014 Oct 17, 15:44 36.20069° -75.71423° 30 min 0.01 0.00
141°
2014 Oct 17, 15:14 36.20071° -75.71426° 30 min 0.01 0.00
270°
2014 Oct 17, 14:44 36.20071° -75.71421° 30 min 0.01 0.00
136°
2014 Oct 17, 14:14 36.20073° -75.71423° 30 min 0.01 0.00
302°
2014 Oct 17, 13:44 36.20072° -75.71421° 30 min 0.01 0.01
333°
2014 Oct 17, 13:14 36.20066° -75.71417° 30 min 0.01 0.00
270°
2014 Oct 17, 12:44 36.20066° -75.71415° 30 min 0.01 0.00
2014 Oct 17, 12:14 36.20066° -75.71415° 30 min 0.01 0.01
295°
2014 Oct 17, 11:44 36.20063° -75.71406° 30 min 0.01 0.00
200°
2014 Oct 17, 11:14 36.20066° -75.71404° 30 min 0.01 0.00
53°
2014 Oct 17, 10:44 36.20064° -75.71408° 30 min 0.01 0.00
141°
2014 Oct 17, 10:14 36.20066° -75.71410° 30 min 0.01 0.00
270°
2014 Oct 17, 09:44 36.20066° -75.71408° 30 min 0.01 0.00
112°
2014 Oct 17, 09:14 36.20067° -75.71410° 30 min 0.01 0.01
130°
2014 Oct 17, 08:44 36.20071° -75.71417° 30 min 0.01 0.00
224°
2014 Oct 17, 08:14 36.20073° -75.71415° 30 min 0.01 0.02
58°
2014 Oct 17, 07:44 36.20063° -75.71436° 30 min 0.01 0.02
230°
2014 Oct 17, 07:14 36.20071° -75.71423° 30 min 0.01 0.01
230°
2014 Oct 17, 06:44 36.20076° -75.71417° 30 min 0.02 0.00
127°
2014 Oct 17, 06:14 36.20078° -75.71421° 30 min 0.02 0.00
2014 Oct 17, 05:44 36.20076° -75.71421° 30 min 0.02 0.00
219°
2014 Oct 17, 05:14 36.20078° -75.71419° 30 min 0.02 0.00
58°
2014 Oct 17, 04:44 36.20077° -75.71421° 30 min 0.02 0.00
180°
2014 Oct 17, 04:14 36.20078° -75.71421° 30 min 0.02 0.01
16°
2014 Oct 17, 03:44 36.20071° -75.71423° 30 min 0.01 0.01
180°
2014 Oct 17, 03:14 36.20076° -75.71423° 30 min 0.02 0.01
215°
2014 Oct 17, 02:44 36.20081° -75.71419° 30 min 0.02 0.01
196°
2014 Oct 17, 02:14 36.20085° -75.71417° 30 min 0.02 0.01
43°
2014 Oct 17, 01:44 36.20080° -75.71423° 30 min 0.02 0.00
58°
2014 Oct 17, 01:14 36.20079° -75.71426° 30 min 0.02 0.00
270°
2014 Oct 17, 00:44 36.20079° -75.71423° 30 min 0.02 0.00
68°
2014 Oct 17, 00:14 36.20078° -75.71426° 30 min 0.02 0.00
258°
2014 Oct 16, 23:44 36.20079° -75.71421° 30 min 0.02 0.00
68°
2014 Oct 16, 23:14 36.20078° -75.71423° 30 min 0.02 0.00
2014 Oct 16, 22:44 36.20078° -75.71423° 30 min 0.02 0.00
2014 Oct 16, 22:14 36.20076° -75.71423° 30 min 0.02 0.00
180°
2014 Oct 16, 21:44 36.20078° -75.71423° 30 min 0.02 0.00
58°
2014 Oct 16, 21:14 36.20077° -75.71426° 30 min 0.02 0.00
180°
2014 Oct 16, 20:44 36.20078° -75.71426° 30 min 0.02 0.01
180°
2014 Oct 16, 20:14 36.20082° -75.71426° 30 min 0.02 0.02
352°
2014 Oct 16, 19:44 36.20069° -75.71423° 30 min 0.01 0.01
180°
2014 Oct 16, 19:14 36.20079° -75.71423° 30 min 0.02 0.01
180°
2014 Oct 16, 18:44 36.20084° -75.71423° 30 min 0.02 0.01
24°
2014 Oct 16, 18:14 36.20080° -75.71426° 30 min 0.02 0.00
2014 Oct 16, 17:44 36.20080° -75.71426° 30 min 0.02 0.00
44°
2014 Oct 16, 17:14 36.20078° -75.71428° 30 min 0.02 0.00
180°
2014 Oct 16, 16:44 36.20079° -75.71428° 30 min 0.02 0.00
2014 Oct 16, 16:14 36.20079° -75.71428° 30 min 0.02 0.00
90°
2014 Oct 16, 15:44 36.20079° -75.71432° 30 min 0.02 0.00
2014 Oct 16, 15:14 36.20076° -75.71432° 30 min 0.02 0.00
107°
2014 Oct 16, 14:44 36.20077° -75.71436° 30 min 0.02 0.01
282°
2014 Oct 16, 14:14 36.20076° -75.71429° 30 min 0.02 0.00
107°
2014 Oct 16, 13:44 36.20077° -75.71434° 30 min 0.02 0.01
2014 Oct 16, 13:14 36.20067° -75.71434° 30 min 0.01 0.00
2014 Oct 16, 12:44 36.20067° -75.71434° 30 min 0.01 0.01
227°
2014 Oct 16, 12:14 36.20070° -75.71429° 30 min 0.01 0.00
2014 Oct 16, 11:44 36.20069° -75.71429° 30 min 0.01 0.01
270°
2014 Oct 16, 11:14 36.20069° -75.71421° 30 min 0.01 0.00
73°
2014 Oct 16, 10:44 36.20068° -75.71426° 30 min 0.01 0.01
251°
2014 Oct 16, 10:14 36.20070° -75.71417° 30 min 0.01 0.00
70°
2014 Oct 16, 09:44 36.20069° -75.71421° 30 min 0.01 0.00
321°
2014 Oct 16, 09:14 36.20067° -75.71419° 30 min 0.01 0.00
208°
2014 Oct 16, 08:44 36.20069° -75.71417° 30 min 0.01 0.01
224°
2014 Oct 16, 08:14 36.20077° -75.71408° 30 min 0.02 0.01
44°
2014 Oct 16, 07:44 36.20069° -75.71417° 30 min 0.01 0.00
158°
2014 Oct 16, 07:14 36.20072° -75.71419° 30 min 0.01 0.00
63°
2014 Oct 16, 06:44 36.20070° -75.71423° 30 min 0.01 0.01
47°
2014 Oct 16, 06:14 36.20067° -75.71428° 30 min 0.01 0.01
155°
2014 Oct 16, 05:44 36.20073° -75.71432° 30 min 0.02 0.00
58°
2014 Oct 16, 05:14 36.20072° -75.71434° 30 min 0.01 0.01
270°
2014 Oct 16, 04:44 36.20072° -75.71428° 30 min 0.01 0.00
160°
2014 Oct 16, 04:14 36.20076° -75.71429° 30 min 0.02 0.00
2014 Oct 16, 03:44 36.20074° -75.71429° 30 min 0.02 0.00
180°
2014 Oct 16, 03:14 36.20077° -75.71429° 30 min 0.02 0.00
180°
2014 Oct 16, 02:44 36.20078° -75.71429° 30 min 0.02 0.00
136°
2014 Oct 16, 02:14 36.20080° -75.71432° 30 min 0.02 0.00
90°
2014 Oct 16, 01:44 36.20080° -75.71434° 30 min 0.02 0.00
329°
2014 Oct 16, 01:14 36.20077° -75.71432° 30 min 0.02 0.00
321°
2014 Oct 16, 00:44 36.20074° -75.71429° 30 min 0.02 0.00
122°
2014 Oct 16, 00:14 36.20076° -75.71432° 30 min 0.02 0.01
105°
2014 Oct 15, 23:44 36.20078° -75.71442° 30 min 0.02 0.02
270°
2014 Oct 15, 23:14 36.20078° -75.71426° 30 min 0.02 0.01
65°
2014 Oct 15, 22:44 36.20076° -75.71432° 30 min 0.02 0.00
219°
2014 Oct 15, 22:14 36.20078° -75.71429° 30 min 0.02 0.00
28°
2014 Oct 15, 21:44 36.20074° -75.71432° 30 min 0.02 0.01
180°
2014 Oct 15, 21:14 36.20080° -75.71432° 30 min 0.02 0.00
31°
2014 Oct 15, 20:44 36.20077° -75.71434° 30 min 0.02 0.00
224°
2014 Oct 15, 20:14 36.20079° -75.71432° 30 min 0.02 0.01
2014 Oct 15, 19:44 36.20071° -75.71432° 30 min 0.01 0.01
180°
2014 Oct 15, 19:14 36.20080° -75.71432° 30 min 0.02 0.01
336°
2014 Oct 15, 18:44 36.20076° -75.71429° 30 min 0.02 0.01
280°
2014 Oct 15, 18:14 36.20074° -75.71421° 30 min 0.01 0.01
112°
2014 Oct 15, 17:44 36.20079° -75.71434° 30 min 0.02 0.00
316°
2014 Oct 15, 17:14 36.20077° -75.71432° 30 min 0.02 0.00
224°
2014 Oct 15, 16:44 36.20079° -75.71429° 30 min 0.02 0.00
2014 Oct 15, 16:14 36.20077° -75.71429° 30 min 0.02 0.00
90°
2014 Oct 15, 15:44 36.20077° -75.71432° 30 min 0.02 0.00
2014 Oct 15, 15:14 36.20077° -75.71432° 30 min 0.02 0.01
145°
2014 Oct 15, 14:44 36.20082° -75.71436° 30 min 0.02 0.01
336°
2014 Oct 15, 14:14 36.20078° -75.71434° 30 min 0.02 0.00
112°
2014 Oct 15, 13:44 36.20079° -75.71436° 30 min 0.02 0.00
316°
2014 Oct 15, 13:14 36.20077° -75.71434° 30 min 0.02 0.00
180°
2014 Oct 15, 12:44 36.20078° -75.71434° 30 min 0.02 0.00
2014 Oct 15, 12:14 36.20078° -75.71434° 30 min 0.02 0.00
58°
2014 Oct 15, 11:44 36.20077° -75.71436° 30 min 0.02 0.00
136°
2014 Oct 15, 11:14 36.20079° -75.71439° 30 min 0.02 0.01
278°
2014 Oct 15, 10:44 36.20078° -75.71432° 30 min 0.02 0.00
270°
2014 Oct 15, 10:14 36.20078° -75.71429° 30 min 0.02 0.00
2014 Oct 15, 09:44 36.20076° -75.71429° 30 min 0.02 0.01
225°
2014 Oct 15, 09:14 36.20079° -75.71426° 30 min 0.02 0.00
31°
2014 Oct 15, 08:44 36.20076° -75.71428° 30 min 0.02 0.00
211°
2014 Oct 15, 08:14 36.20079° -75.71426° 30 min 0.02 0.00
90°
2014 Oct 15, 07:44 36.20079° -75.71428° 30 min 0.02 0.00
2014 Oct 15, 07:14 36.20078° -75.71428° 30 min 0.02 0.00
122°
2014 Oct 15, 06:44 36.20079° -75.71429° 30 min 0.02 0.00
270°
2014 Oct 15, 06:14 36.20079° -75.71428° 30 min 0.02 0.00
133°
2014 Oct 15, 05:44 36.20080° -75.71429° 30 min 0.02 0.01
230°
2014 Oct 15, 05:14 36.20084° -75.71423° 30 min 0.02 0.01
66°
2014 Oct 15, 04:44 36.20081° -75.71432° 30 min 0.02 0.00
122°
2014 Oct 15, 04:14 36.20082° -75.71434° 30 min 0.02 0.01
313°
2014 Oct 15, 03:44 36.20079° -75.71429° 30 min 0.02 0.00
2014 Oct 15, 03:14 36.20078° -75.71429° 30 min 0.02 0.00
112°
2014 Oct 15, 02:44 36.20079° -75.71432° 30 min 0.02 0.00
180°
2014 Oct 15, 02:14 36.20080° -75.71432° 30 min 0.02 0.00
302°
2014 Oct 15, 01:44 36.20079° -75.71429° 30 min 0.02 0.00
2014 Oct 15, 01:14 36.20077° -75.71429° 30 min 0.02 0.00
2014 Oct 15, 00:44 36.20073° -75.71429° 30 min 0.01 0.00
180°
2014 Oct 15, 00:14 36.20074° -75.71429° 30 min 0.02 0.00
180°
2014 Oct 14, 23:44 36.20077° -75.71429° 30 min 0.02 0.00
2014 Oct 14, 23:14 36.20073° -75.71429° 30 min 0.01 0.00
90°
2014 Oct 14, 22:44 36.20073° -75.71432° 30 min 0.02 0.00
180°
2014 Oct 14, 22:14 36.20074° -75.71432° 30 min 0.02 0.00
2014 Oct 14, 21:44 36.20074° -75.71432° 30 min 0.02 0.00
122°
2014 Oct 14, 21:14 36.20076° -75.71434° 30 min 0.02 0.00
2014 Oct 14, 20:44 36.20074° -75.71434° 30 min 0.02 0.00
238°
2014 Oct 14, 20:14 36.20076° -75.71432° 30 min 0.02 0.00
2014 Oct 14, 19:44 36.20073° -75.71432° 30 min 0.02 0.01
344°
2014 Oct 14, 19:14 36.20063° -75.71428° 30 min 0.01 0.01
161°
2014 Oct 14, 18:44 36.20071° -75.71432° 30 min 0.01 0.01
58°
2014 Oct 14, 18:14 36.20068° -75.71439° 30 min 0.01 0.01
180°
2014 Oct 14, 17:44 36.20078° -75.71439° 30 min 0.02 0.01
348°
2014 Oct 14, 17:14 36.20069° -75.71436° 30 min 0.01 0.00
58°
2014 Oct 14, 16:44 36.20068° -75.71439° 30 min 0.01 0.00
2014 Oct 14, 16:14 36.20068° -75.71439° 30 min 0.01 0.00
180°
2014 Oct 14, 15:44 36.20069° -75.71439° 30 min 0.01 0.00
2014 Oct 14, 15:14 36.20069° -75.71439° 30 min 0.01 0.00
47°
2014 Oct 14, 14:44 36.20068° -75.71440° 30 min 0.01 0.00
327°
2014 Oct 14, 14:14 36.20066° -75.71439° 30 min 0.01 0.00
90°
2014 Oct 14, 13:44 36.20066° -75.71440° 30 min 0.01 0.00
332°
2014 Oct 14, 13:14 36.20064° -75.71439° 30 min 0.01 0.00
270°
2014 Oct 14, 12:44 36.20064° -75.71436° 30 min 0.01 0.00
58°
2014 Oct 14, 12:14 36.20063° -75.71439° 30 min 0.01 0.00
2014 Oct 14, 11:44 36.20060° -75.71439° 30 min 0.01 0.00
2014 Oct 14, 11:14 36.20058° -75.71439° 30 min 0.01 0.00
329°
2014 Oct 14, 10:44 36.20055° -75.71436° 30 min 0.01 0.00
332°
2014 Oct 14, 10:14 36.20052° -75.71434° 30 min 0.01 0.01
2014 Oct 14, 09:44 36.20047° -75.71434° 30 min 0.01 0.01
2014 Oct 14, 09:14 36.20042° -75.71434° 30 min 0.01 0.01
302°
2014 Oct 14, 08:44 36.20040° -75.71429° 30 min 0.01 0.00
338°
2014 Oct 14, 08:14 36.20037° -75.71428° 30 min 0.01 0.00
211°
2014 Oct 14, 07:44 36.20040° -75.71426° 30 min 0.01 0.01
180°
2014 Oct 14, 07:14 36.20048° -75.71426° 30 min 0.00 0.01
19°
2014 Oct 14, 06:44 36.20039° -75.71429° 30 min 0.01 0.00
58°
2014 Oct 14, 06:14 36.20038° -75.71432° 30 min 0.01 0.02
146°
2014 Oct 14, 05:44 36.20053° -75.71445° 30 min 0.01 0.01
341°
2014 Oct 14, 05:14 36.20042° -75.71440° 30 min 0.01 0.00
332°
2014 Oct 14, 04:44 36.20040° -75.71439° 30 min 0.01 0.00
219°
2014 Oct 14, 04:14 36.20042° -75.71436° 30 min 0.01 0.00
180°
2014 Oct 14, 03:44 36.20044° -75.71436° 30 min 0.01 0.01
99°
2014 Oct 14, 03:14 36.20044° -75.71442° 30 min 0.01 0.01
158°
2014 Oct 14, 02:44 36.20049° -75.71445° 30 min 0.01 0.00
321°
2014 Oct 14, 02:14 36.20047° -75.71442° 30 min 0.01 0.00
180°
2014 Oct 14, 01:44 36.20048° -75.71442° 30 min 0.01 0.02
347°
2014 Oct 14, 01:14 36.20035° -75.71439° 30 min 0.01 0.00
2014 Oct 14, 00:44 36.20034° -75.71439° 30 min 0.01 0.01
282°
2014 Oct 14, 00:14 36.20033° -75.71432° 30 min 0.01 0.02
63°
2014 Oct 13, 23:44 36.20025° -75.71449° 30 min 0.02 0.02
255°
2014 Oct 13, 23:14 36.20029° -75.71429° 30 min 0.01 0.01
295°
2014 Oct 13, 22:44 36.20027° -75.71423° 30 min 0.01 0.01
103°
2014 Oct 13, 22:14 36.20028° -75.71429° 30 min 0.01 0.01
270°
2014 Oct 13, 21:44 36.20028° -75.71423° 30 min 0.01 0.00
270°
2014 Oct 13, 21:14 36.20028° -75.71419° 30 min 0.01 0.00
44°
2014 Oct 13, 20:44 36.20026° -75.71421° 30 min 0.01 0.00
302°
2014 Oct 13, 20:14 36.20025° -75.71419° 30 min 0.01 0.00
270°
2014 Oct 13, 19:44 36.20025° -75.71417° 30 min 0.01 0.00
147°
2014 Oct 13, 19:14 36.20027° -75.71419° 30 min 0.01 0.00
2014 Oct 13, 18:44 36.20027° -75.71419° 30 min 0.01 0.00
327°
2014 Oct 13, 18:14 36.20025° -75.71417° 30 min 0.01 0.00
2014 Oct 13, 17:44 36.20025° -75.71417° 30 min 0.01 0.00
28°
2014 Oct 13, 17:14 36.20023° -75.71419° 30 min 0.02 0.00
208°
2014 Oct 13, 16:44 36.20025° -75.71417° 30 min 0.01 0.00
270°
2014 Oct 13, 16:14 36.20025° -75.71415° 30 min 0.02 0.00
90°
2014 Oct 13, 15:44 36.20025° -75.71417° 30 min 0.01 0.00
180°
2014 Oct 13, 15:14 36.20027° -75.71417° 30 min 0.01 0.01
81°
2014 Oct 13, 14:44 36.20026° -75.71423° 30 min 0.01 0.00
270°
2014 Oct 13, 14:14 36.20026° -75.71421° 30 min 0.01 0.00
302°
2014 Oct 13, 13:44 36.20025° -75.71419° 30 min 0.01 0.01
19°
2014 Oct 13, 13:14 36.20020° -75.71421° 30 min 0.02 0.01
180°
2014 Oct 13, 12:44 36.20024° -75.71421° 30 min 0.02 0.00
2014 Oct 13, 12:14 36.20024° -75.71421° 30 min 0.02 0.01
139°
2014 Oct 13, 11:44 36.20028° -75.71426° 30 min 0.01 0.01
282°
2014 Oct 13, 11:14 36.20027° -75.71419° 30 min 0.01 0.00
338°
2014 Oct 13, 10:44 36.20024° -75.71417° 30 min 0.02 0.00
2014 Oct 13, 10:14 36.20024° -75.71417° 30 min 0.02 0.00
2014 Oct 13, 09:44 36.20024° -75.71417° 30 min 0.02 0.00
180°
2014 Oct 13, 09:14 36.20025° -75.71417° 30 min 0.01 0.00
253°
2014 Oct 13, 08:44 36.20026° -75.71413° 30 min 0.01 0.00
302°
2014 Oct 13, 08:14 36.20025° -75.71410° 30 min 0.02 0.00
58°
2014 Oct 13, 07:44 36.20024° -75.71413° 30 min 0.02 0.00
2014 Oct 13, 07:14 36.20024° -75.71413° 30 min 0.02 0.00
141°
2014 Oct 13, 06:44 36.20026° -75.71415° 30 min 0.01 0.00
270°
2014 Oct 13, 06:14 36.20026° -75.71413° 30 min 0.01 0.00
302°
2014 Oct 13, 05:44 36.20025° -75.71410° 30 min 0.02 0.01
90°
2014 Oct 13, 05:14 36.20025° -75.71417° 30 min 0.01 0.00
287°
2014 Oct 13, 04:44 36.20024° -75.71413° 30 min 0.02 0.00
180°
2014 Oct 13, 04:14 36.20025° -75.71413° 30 min 0.02 0.00
180°
2014 Oct 13, 03:44 36.20026° -75.71413° 30 min 0.01 0.01
65°
2014 Oct 13, 03:14 36.20024° -75.71419° 30 min 0.02 0.00
270°
2014 Oct 13, 02:44 36.20024° -75.71417° 30 min 0.02 0.00
133°
2014 Oct 13, 02:14 36.20025° -75.71419° 30 min 0.01 0.00
332°
2014 Oct 13, 01:44 36.20023° -75.71417° 30 min 0.02 0.01
341°
2014 Oct 13, 01:14 36.20018° -75.71415° 30 min 0.02 0.00
127°
2014 Oct 13, 00:44 36.20020° -75.71419° 30 min 0.02 0.00
270°
2014 Oct 13, 00:14 36.20020° -75.71417° 30 min 0.02 0.01
180°
2014 Oct 12, 23:44 36.20024° -75.71417° 30 min 0.02 0.00
28°
2014 Oct 12, 23:14 36.20022° -75.71419° 30 min 0.02 0.00
227°
2014 Oct 12, 22:44 36.20023° -75.71417° 30 min 0.02 0.01
180°
2014 Oct 12, 22:14 36.20027° -75.71417° 30 min 0.01 0.00
316°
2014 Oct 12, 21:44 36.20025° -75.71415° 30 min 0.02 0.00
270°
2014 Oct 12, 21:14 36.20025° -75.71413° 30 min 0.02 0.00
39°
2014 Oct 12, 20:44 36.20023° -75.71415° 30 min 0.02 0.00
253°
2014 Oct 12, 20:14 36.20024° -75.71410° 30 min 0.02 0.00
149°
2014 Oct 12, 19:44 36.20027° -75.71413° 30 min 0.01 0.00
329°
2014 Oct 12, 19:14 36.20024° -75.71410° 30 min 0.02 0.00
219°
2014 Oct 12, 18:44 36.20026° -75.71408° 30 min 0.02 0.00
39°
2014 Oct 12, 18:14 36.20024° -75.71410° 30 min 0.02 0.00
180°
2014 Oct 12, 17:44 36.20025° -75.71410° 30 min 0.02 0.00
2014 Oct 12, 17:14 36.20025° -75.71410° 30 min 0.02 0.00
180°
2014 Oct 12, 16:44 36.20026° -75.71410° 30 min 0.01 0.00
90°
2014 Oct 12, 16:14 36.20026° -75.71415° 30 min 0.01 0.00
58°
2014 Oct 12, 15:44 36.20025° -75.71417° 30 min 0.01 0.01
90°
2014 Oct 12, 15:14 36.20025° -75.71423° 30 min 0.01 0.00
270°
2014 Oct 12, 14:44 36.20025° -75.71419° 30 min 0.01 0.00
2014 Oct 12, 14:14 36.20025° -75.71419° 30 min 0.01 0.00
2014 Oct 12, 13:44 36.20025° -75.71419° 30 min 0.01 0.00
2014 Oct 12, 13:14 36.20024° -75.71419° 30 min 0.02 0.00
39°
2014 Oct 12, 12:44 36.20022° -75.71421° 30 min 0.02 0.00
2014 Oct 12, 12:14 36.20020° -75.71421° 30 min 0.02 0.00
224°
2014 Oct 12, 11:44 36.20022° -75.71419° 30 min 0.02 0.00
233°
2014 Oct 12, 11:14 36.20024° -75.71415° 30 min 0.02 0.00
2014 Oct 12, 10:44 36.20024° -75.71415° 30 min 0.02 0.00
2014 Oct 12, 10:14 36.20024° -75.71415° 30 min 0.02 0.00
2014 Oct 12, 09:44 36.20024° -75.71415° 30 min 0.02 0.00
219°
2014 Oct 12, 09:14 36.20026° -75.71413° 30 min 0.01 0.00
287°
2014 Oct 12, 08:44 36.20025° -75.71408° 30 min 0.02 0.00
58°
2014 Oct 12, 08:14 36.20024° -75.71410° 30 min 0.02 0.00
2014 Oct 12, 07:44 36.20023° -75.71410° 30 min 0.02 0.00
238°
2014 Oct 12, 07:14 36.20024° -75.71408° 30 min 0.02 0.00
149°
2014 Oct 12, 06:44 36.20027° -75.71410° 30 min 0.01 0.00
2014 Oct 12, 06:14 36.20025° -75.71410° 30 min 0.02 0.00
2014 Oct 12, 05:44 36.20025° -75.71410° 30 min 0.02 0.04
38°
2014 Oct 12, 05:14 36.19998° -75.71436° 30 min 0.03 0.04
218°
2014 Oct 12, 04:44 36.20025° -75.71410° 30 min 0.02 0.00
180°
2014 Oct 12, 04:14 36.20027° -75.71410° 30 min 0.01 0.00
122°
2014 Oct 12, 03:44 36.20028° -75.71413° 30 min 0.01 0.00
2014 Oct 12, 03:14 36.20025° -75.71413° 30 min 0.02 0.00
2014 Oct 12, 02:44 36.20024° -75.71413° 30 min 0.02 0.01
230°
2014 Oct 12, 02:14 36.20027° -75.71408° 30 min 0.01 0.00
63°
2014 Oct 12, 01:44 36.20025° -75.71413° 30 min 0.02 0.01
2014 Oct 12, 01:14 36.20021° -75.71413° 30 min 0.02 0.00
180°
2014 Oct 12, 00:44 36.20022° -75.71413° 30 min 0.02 0.00
122°
2014 Oct 12, 00:14 36.20023° -75.71415° 30 min 0.02 0.00
122°
2014 Oct 11, 23:44 36.20024° -75.71417° 30 min 0.02 0.00
2014 Oct 11, 23:14 36.20021° -75.71417° 30 min 0.02 0.01
114°
2014 Oct 11, 22:44 36.20024° -75.71426° 30 min 0.02 0.01
238°
2014 Oct 11, 22:14 36.20026° -75.71421° 30 min 0.01 0.00
302°
2014 Oct 11, 21:44 36.20025° -75.71419° 30 min 0.01 0.01
344°
2014 Oct 11, 21:14 36.20021° -75.71417° 30 min 0.02 0.01
221°
2014 Oct 11, 20:44 36.20025° -75.71413° 30 min 0.02 0.01
226°
2014 Oct 11, 20:14 36.20034° -75.71402° 30 min 0.01 0.04
170°
2014 Oct 11, 19:44 36.20063° -75.71408° 30 min 0.01 0.00
219°
2014 Oct 11, 19:14 36.20065° -75.71406° 30 min 0.01 0.01
156°
2014 Oct 11, 18:44 36.20069° -75.71408° 30 min 0.01 0.00
302°
2014 Oct 11, 18:14 36.20068° -75.71406° 30 min 0.01 0.01
139°
2014 Oct 11, 17:44 36.20072° -75.71410° 30 min 0.01 0.00
180°
2014 Oct 11, 17:14 36.20076° -75.71410° 30 min 0.02 0.01
90°
2014 Oct 11, 16:44 36.20076° -75.71417° 30 min 0.02 0.00
90°
2014 Oct 11, 16:14 36.20076° -75.71419° 30 min 0.02 0.00
2014 Oct 11, 15:44 36.20076° -75.71419° 30 min 0.02 0.00
270°
2014 Oct 11, 15:14 36.20076° -75.71415° 30 min 0.02 0.01
65°
2014 Oct 11, 14:44 36.20073° -75.71421° 30 min 0.01 0.01
112°
2014 Oct 11, 14:14 36.20076° -75.71428° 30 min 0.02 0.00
332°
2014 Oct 11, 13:44 36.20072° -75.71426° 30 min 0.01 0.01
90°
2014 Oct 11, 13:14 36.20072° -75.71434° 30 min 0.01 0.00
31°
2014 Oct 11, 12:44 36.20069° -75.71436° 30 min 0.01 0.00
180°
2014 Oct 11, 12:14 36.20071° -75.71436° 30 min 0.01 0.00
321°
2014 Oct 11, 11:44 36.20069° -75.71434° 30 min 0.01 0.00
2014 Oct 11, 11:14 36.20069° -75.71434° 30 min 0.01 0.00
238°
2014 Oct 11, 10:44 36.20070° -75.71432° 30 min 0.01 0.00
302°
2014 Oct 11, 10:14 36.20069° -75.71429° 30 min 0.01 0.00
2014 Oct 11, 09:44 36.20068° -75.71429° 30 min 0.01 0.01
102°
2014 Oct 11, 09:14 36.20069° -75.71436° 30 min 0.01 0.01
251°
2014 Oct 11, 08:44 36.20072° -75.71426° 30 min 0.01 0.01
221°
2014 Oct 11, 08:14 36.20079° -75.71419° 30 min 0.02 0.01
349°
2014 Oct 11, 07:44 36.20072° -75.71417° 30 min 0.01 0.00
2014 Oct 11, 07:14 36.20071° -75.71417° 30 min 0.01 0.00
2014 Oct 11, 06:44 36.20070° -75.71417° 30 min 0.01 0.00
270°
2014 Oct 11, 06:14 36.20070° -75.71415° 30 min 0.01 0.01
180°
2014 Oct 11, 05:44 36.20076° -75.71415° 30 min 0.02 0.00
58°
2014 Oct 11, 05:14 36.20074° -75.71417° 30 min 0.01 0.00
133°
2014 Oct 11, 04:44 36.20076° -75.71419° 30 min 0.02 0.00
270°
2014 Oct 11, 04:14 36.20076° -75.71417° 30 min 0.02 0.01
52°
2014 Oct 11, 03:44 36.20070° -75.71426° 30 min 0.01 0.01
206°
2014 Oct 11, 03:14 36.20078° -75.71421° 30 min 0.02 0.01
109°
2014 Oct 11, 02:44 36.20080° -75.71428° 30 min 0.02 0.01
221°
2014 Oct 11, 02:14 36.20084° -75.71423° 30 min 0.02 0.01
2014 Oct 11, 01:44 36.20074° -75.71423° 30 min 0.01 0.00
90°
2014 Oct 11, 01:14 36.20074° -75.71426° 30 min 0.01 0.00
127°
2014 Oct 11, 00:44 36.20077° -75.71429° 30 min 0.02 0.00
270°
2014 Oct 11, 00:14 36.20077° -75.71428° 30 min 0.02 0.00
2014 Oct 10, 23:44 36.20076° -75.71428° 30 min 0.02 0.00
47°
2014 Oct 10, 23:14 36.20074° -75.71429° 30 min 0.02 0.00
180°
2014 Oct 10, 22:44 36.20076° -75.71429° 30 min 0.02 0.00
141°
2014 Oct 10, 22:14 36.20078° -75.71432° 30 min 0.02 0.00
112°
2014 Oct 10, 21:44 36.20079° -75.71434° 30 min 0.02 0.00
292°
2014 Oct 10, 21:14 36.20078° -75.71432° 30 min 0.02 0.00
302°
2014 Oct 10, 20:44 36.20077° -75.71429° 30 min 0.02 0.00
2014 Oct 10, 20:14 36.20077° -75.71429° 30 min 0.02 0.01
318°
2014 Oct 10, 19:44 36.20073°